createdAt,value
2018-07-24T00:00:04.201Z,20.96
2018-07-24T00:01:48.925Z,20.88
2018-07-24T00:02:49.506Z,20.75
2018-07-24T00:03:50.068Z,20.75
2018-07-24T00:04:50.615Z,20.81
2018-07-24T00:05:51.175Z,20.80
2018-07-24T00:06:51.730Z,20.75
2018-07-24T00:07:52.280Z,20.66
2018-07-24T00:08:52.836Z,20.80
2018-07-24T00:09:53.392Z,20.72
2018-07-24T00:10:54.001Z,20.66
2018-07-24T00:11:54.509Z,20.75
2018-07-24T00:12:55.063Z,20.66
2018-07-24T00:13:55.610Z,20.69
2018-07-24T00:14:56.167Z,20.70
2018-07-24T00:15:56.714Z,20.65
2018-07-24T00:16:57.271Z,20.47
2018-07-24T00:17:57.826Z,20.31
2018-07-24T00:18:58.380Z,20.28
2018-07-24T00:19:58.935Z,20.24
2018-07-24T00:20:59.489Z,20.14
2018-07-24T00:22:00.051Z,20.11
2018-07-24T00:23:00.595Z,20.14
2018-07-24T00:24:01.149Z,20.10
2018-07-24T00:25:01.705Z,20.17
2018-07-24T00:26:02.255Z,20.10
2018-07-24T00:27:02.814Z,20.14
2018-07-24T00:28:03.367Z,20.11
2018-07-24T00:29:03.920Z,20.19
2018-07-24T00:30:04.479Z,20.13
2018-07-24T00:31:05.030Z,20.17
2018-07-24T00:32:05.593Z,20.17
2018-07-24T00:33:06.137Z,20.13
2018-07-24T00:34:06.694Z,20.21
2018-07-24T00:35:07.252Z,20.22
2018-07-24T00:36:07.795Z,20.14
2018-07-24T00:37:08.350Z,20.14
2018-07-24T00:38:08.909Z,20.13
2018-07-24T00:39:09.458Z,20.09
2018-07-24T00:40:10.018Z,20.13
2018-07-24T00:41:10.562Z,20.03
2018-07-24T00:42:11.118Z,20.06
2018-07-24T00:43:11.671Z,20.04
2018-07-24T00:44:12.226Z,20.03
2018-07-24T00:45:12.774Z,20.03
2018-07-24T00:46:13.328Z,20.03
2018-07-24T00:47:13.885Z,19.98
2018-07-24T00:48:14.438Z,20.06
2018-07-24T00:49:14.992Z,19.98
2018-07-24T00:50:15.539Z,19.92
2018-07-24T00:51:16.094Z,19.91
2018-07-24T00:52:16.649Z,19.92
2018-07-24T00:53:17.206Z,19.98
2018-07-24T00:54:17.869Z,19.89
2018-07-24T00:55:18.308Z,19.80
2018-07-24T00:56:18.863Z,19.84
2018-07-24T00:57:19.421Z,19.71
2018-07-24T00:58:19.976Z,19.54
2018-07-24T00:59:20.530Z,19.69
2018-07-24T01:00:21.087Z,19.62
2018-07-24T01:01:21.640Z,19.61
2018-07-24T01:02:22.196Z,19.64
2018-07-24T01:03:22.744Z,19.55
2018-07-24T01:04:23.291Z,19.64
2018-07-24T01:05:23.844Z,19.66
2018-07-24T01:06:24.399Z,19.62
2018-07-24T01:07:24.946Z,19.66
2018-07-24T01:08:25.506Z,19.66
2018-07-24T01:09:26.050Z,19.64
2018-07-24T01:10:26.604Z,19.67
2018-07-24T01:11:27.160Z,19.70
2018-07-24T01:12:27.715Z,19.71
2018-07-24T01:13:28.271Z,19.74
2018-07-24T01:14:28.824Z,19.70
2018-07-24T01:15:29.370Z,19.69
2018-07-24T01:16:29.927Z,19.67
2018-07-24T01:17:30.479Z,19.77
2018-07-24T01:18:31.034Z,19.71
2018-07-24T01:19:31.590Z,19.71
2018-07-24T01:20:32.139Z,19.71
2018-07-24T01:21:32.684Z,19.71
2018-07-24T01:22:33.231Z,19.77
2018-07-24T01:23:33.787Z,19.70
2018-07-24T01:24:34.341Z,19.70
2018-07-24T01:25:34.893Z,19.74
2018-07-24T01:26:35.441Z,19.69
2018-07-24T01:27:35.986Z,19.67
2018-07-24T01:28:36.537Z,19.62
2018-07-24T01:29:37.091Z,19.62
2018-07-24T01:30:37.646Z,19.59
2018-07-24T01:31:38.201Z,19.56
2018-07-24T01:32:38.757Z,19.55
2018-07-24T01:33:39.310Z,19.48
2018-07-24T01:34:39.867Z,19.49
2018-07-24T01:35:40.420Z,19.48
2018-07-24T01:36:40.973Z,19.49
2018-07-24T01:37:41.519Z,19.52
2018-07-24T01:38:42.068Z,19.47
2018-07-24T01:39:42.623Z,19.48
2018-07-24T01:40:43.177Z,19.44
2018-07-24T01:41:43.732Z,19.41
2018-07-24T01:42:44.283Z,19.41
2018-07-24T01:43:44.833Z,19.39
2018-07-24T01:44:45.389Z,19.36
2018-07-24T01:45:45.945Z,19.36
2018-07-24T01:46:46.501Z,19.34
2018-07-24T01:47:47.048Z,19.33
2018-07-24T01:48:47.608Z,19.36
2018-07-24T01:49:48.161Z,19.41
2018-07-24T01:50:48.713Z,19.41
2018-07-24T01:51:49.267Z,19.37
2018-07-24T01:52:49.823Z,19.36
2018-07-24T01:53:50.378Z,19.37
2018-07-24T01:54:50.934Z,19.39
2018-07-24T01:55:51.487Z,19.39
2018-07-24T01:56:52.042Z,19.36
2018-07-24T01:57:52.600Z,19.34
2018-07-24T01:58:53.150Z,19.34
2018-07-24T01:59:53.702Z,19.36
2018-07-24T02:00:54.251Z,19.22
2018-07-24T02:01:54.805Z,19.36
2018-07-24T02:02:55.355Z,19.30
2018-07-24T02:03:55.908Z,19.27
2018-07-24T02:04:56.460Z,19.24
2018-07-24T02:05:57.017Z,19.34
2018-07-24T02:06:57.569Z,19.25
2018-07-24T02:07:58.120Z,19.22
2018-07-24T02:08:58.669Z,19.27
2018-07-24T02:09:59.230Z,19.24
2018-07-24T02:10:59.784Z,19.30
2018-07-24T02:12:00.338Z,19.30
2018-07-24T02:13:00.890Z,19.22
2018-07-24T02:14:01.444Z,19.30
2018-07-24T02:15:01.993Z,19.29
2018-07-24T02:16:02.548Z,19.29
2018-07-24T02:17:03.102Z,19.19
2018-07-24T02:18:03.656Z,19.30
2018-07-24T02:19:04.209Z,19.21
2018-07-24T02:20:04.758Z,19.25
2018-07-24T02:21:05.314Z,19.14
2018-07-24T02:22:05.859Z,19.18
2018-07-24T02:23:06.416Z,19.16
2018-07-24T02:24:06.967Z,19.15
2018-07-24T02:25:07.520Z,19.15
2018-07-24T02:26:08.080Z,19.12
2018-07-24T02:27:08.623Z,19.07
2018-07-24T02:28:09.177Z,19.09
2018-07-24T02:29:09.724Z,19.06
2018-07-24T02:30:10.278Z,19.11
2018-07-24T02:31:10.833Z,18.95
2018-07-24T02:32:11.388Z,19.07
2018-07-24T02:33:11.942Z,19.02
2018-07-24T02:34:12.499Z,19.02
2018-07-24T02:35:13.052Z,19.04
2018-07-24T02:36:13.607Z,18.96
2018-07-24T02:37:14.165Z,18.93
2018-07-24T02:38:14.721Z,19.06
2018-07-24T02:39:15.274Z,18.99
2018-07-24T02:40:15.831Z,18.98
2018-07-24T02:41:16.382Z,18.99
2018-07-24T02:42:16.928Z,19.06
2018-07-24T02:43:17.481Z,18.95
2018-07-24T02:44:18.030Z,19.02
2018-07-24T02:45:18.586Z,18.99
2018-07-24T02:46:19.139Z,18.93
2018-07-24T02:47:19.694Z,18.96
2018-07-24T02:48:20.241Z,18.96
2018-07-24T02:49:20.797Z,18.90
2018-07-24T02:50:21.355Z,18.90
2018-07-24T02:51:21.912Z,18.78
2018-07-24T02:52:22.461Z,18.83
2018-07-24T02:53:23.016Z,18.92
2018-07-24T02:54:23.569Z,18.93
2018-07-24T02:55:24.124Z,18.98
2018-07-24T02:56:24.671Z,18.98
2018-07-24T02:57:25.225Z,18.90
2018-07-24T02:58:25.782Z,18.95
2018-07-24T02:59:26.335Z,18.90
2018-07-24T03:00:26.888Z,18.99
2018-07-24T03:01:27.440Z,18.99
2018-07-24T03:02:27.993Z,18.90
2018-07-24T03:03:28.548Z,18.99
2018-07-24T03:04:29.093Z,18.90
2018-07-24T03:05:29.649Z,18.93
2018-07-24T03:06:30.194Z,18.90
2018-07-24T03:07:30.752Z,18.93
2018-07-24T03:08:31.306Z,18.85
2018-07-24T03:09:31.860Z,18.84
2018-07-24T03:10:32.406Z,18.81
2018-07-24T03:11:32.962Z,18.81
2018-07-24T03:12:33.511Z,18.84
2018-07-24T03:13:34.064Z,18.87
2018-07-24T03:14:34.618Z,18.83
2018-07-24T03:15:35.174Z,18.69
2018-07-24T03:16:35.727Z,18.74
2018-07-24T03:17:36.274Z,18.80
2018-07-24T03:18:36.828Z,18.78
2018-07-24T03:19:37.375Z,18.80
2018-07-24T03:20:37.924Z,18.85
2018-07-24T03:21:38.473Z,18.80
2018-07-24T03:22:39.033Z,18.81
2018-07-24T03:23:39.588Z,18.81
2018-07-24T03:24:40.136Z,18.74
2018-07-24T03:25:40.689Z,18.71
2018-07-24T03:26:41.245Z,18.80
2018-07-24T03:27:41.805Z,18.71
2018-07-24T03:28:42.355Z,18.69
2018-07-24T03:29:42.904Z,18.77
2018-07-24T03:30:43.462Z,18.77
2018-07-24T03:31:44.014Z,18.69
2018-07-24T03:32:44.573Z,18.69
2018-07-24T03:33:45.132Z,18.62
2018-07-24T03:34:45.687Z,18.69
2018-07-24T03:35:46.235Z,18.63
2018-07-24T03:36:46.797Z,18.60
2018-07-24T03:37:47.352Z,18.69
2018-07-24T03:38:47.912Z,18.73
2018-07-24T03:39:48.541Z,18.69
2018-07-24T03:40:49.019Z,18.65
2018-07-24T03:41:49.577Z,18.68
2018-07-24T03:42:50.133Z,18.68
2018-07-24T03:43:50.690Z,18.68
2018-07-24T03:44:51.245Z,18.60
2018-07-24T03:45:51.800Z,18.55
2018-07-24T03:46:52.356Z,18.63
2018-07-24T03:47:52.912Z,18.59
2018-07-24T03:48:53.468Z,18.53
2018-07-24T03:49:54.020Z,18.56
2018-07-24T03:50:54.578Z,18.53
2018-07-24T03:51:55.139Z,18.51
2018-07-24T03:52:55.696Z,18.45
2018-07-24T03:53:56.244Z,18.50
2018-07-24T03:54:56.804Z,18.55
2018-07-24T03:55:57.361Z,18.53
2018-07-24T03:56:57.916Z,18.41
2018-07-24T03:57:58.501Z,18.41
2018-07-24T03:58:59.023Z,18.55
2018-07-24T03:59:59.576Z,18.37
2018-07-24T04:01:00.137Z,18.38
2018-07-24T04:02:00.696Z,18.47
2018-07-24T04:03:01.247Z,18.44
2018-07-24T04:04:01.807Z,18.50
2018-07-24T04:05:02.359Z,18.43
2018-07-24T04:06:02.910Z,18.48
2018-07-24T04:07:03.463Z,18.47
2018-07-24T04:08:04.022Z,18.51
2018-07-24T04:09:04.582Z,18.43
2018-07-24T04:10:05.135Z,18.44
2018-07-24T04:11:05.693Z,18.51
2018-07-24T04:12:06.254Z,18.44
2018-07-24T04:13:06.806Z,18.43
2018-07-24T04:14:07.360Z,18.48
2018-07-24T04:15:07.916Z,18.50
2018-07-24T04:16:08.475Z,18.47
2018-07-24T04:17:09.038Z,18.43
2018-07-24T04:18:09.600Z,18.45
2018-07-24T04:19:10.146Z,18.40
2018-07-24T04:20:10.706Z,18.41
2018-07-24T04:21:11.260Z,18.29
2018-07-24T04:22:11.810Z,18.29
2018-07-24T04:23:12.365Z,18.19
2018-07-24T04:24:12.926Z,18.18
2018-07-24T04:25:13.485Z,18.14
2018-07-24T04:26:14.043Z,18.08
2018-07-24T04:27:14.595Z,18.11
2018-07-24T04:28:15.153Z,18.11
2018-07-24T04:29:15.713Z,18.16
2018-07-24T04:30:16.270Z,18.23
2018-07-24T04:31:16.833Z,18.34
2018-07-24T04:32:17.387Z,18.34
2018-07-24T04:33:17.944Z,18.38
2018-07-24T04:34:18.494Z,18.55
2018-07-24T04:35:19.047Z,18.51
2018-07-24T04:36:19.608Z,18.62
2018-07-24T04:37:20.165Z,18.68
2018-07-24T04:38:20.724Z,18.81
2018-07-24T04:39:21.276Z,18.80
2018-07-24T04:40:21.922Z,18.84
2018-07-24T04:41:22.386Z,18.96
2018-07-24T04:42:22.949Z,19.09
2018-07-24T04:43:23.511Z,19.44
2018-07-24T04:44:24.069Z,19.85
2018-07-24T04:45:24.631Z,20.34
2018-07-24T04:46:25.185Z,20.69
2018-07-24T04:47:25.749Z,21.00
2018-07-24T04:48:26.330Z,21.28
2018-07-24T04:49:26.877Z,21.57
2018-07-24T04:50:27.437Z,21.92
2018-07-24T04:51:28.005Z,22.03
2018-07-24T04:52:28.565Z,22.17
2018-07-24T04:53:29.129Z,22.40
2018-07-24T04:54:29.691Z,22.68
2018-07-24T04:55:30.256Z,22.87
2018-07-24T04:56:30.821Z,23.09
2018-07-24T04:57:31.390Z,23.13
2018-07-24T04:58:31.946Z,23.00
2018-07-24T04:59:32.514Z,22.83
2018-07-24T05:00:33.079Z,22.95
2018-07-24T05:01:33.643Z,23.16
2018-07-24T05:02:34.215Z,23.25
2018-07-24T05:03:34.775Z,23.03
2018-07-24T05:04:35.341Z,22.81
2018-07-24T05:05:35.905Z,22.83
2018-07-24T05:06:36.464Z,22.90
2018-07-24T05:07:37.026Z,22.85
2018-07-24T05:08:37.590Z,22.76
2018-07-24T05:09:38.177Z,22.88
2018-07-24T05:10:38.717Z,23.27
2018-07-24T05:11:39.282Z,23.56
2018-07-24T05:12:39.842Z,23.77
2018-07-24T05:13:40.403Z,24.02
2018-07-24T05:14:40.969Z,24.18
2018-07-24T05:15:41.539Z,24.23
2018-07-24T05:16:42.123Z,24.17
2018-07-24T05:17:42.667Z,24.14
2018-07-24T05:18:43.223Z,24.38
2018-07-24T05:19:43.789Z,24.46
2018-07-24T05:20:44.357Z,24.84
2018-07-24T05:21:44.929Z,25.02
2018-07-24T05:22:45.496Z,25.32
2018-07-24T05:23:46.067Z,25.71
2018-07-24T05:24:46.638Z,25.80
2018-07-24T05:25:47.292Z,25.87
2018-07-24T05:26:47.770Z,25.94
2018-07-24T05:27:48.342Z,25.94
2018-07-24T05:28:48.910Z,26.09
2018-07-24T05:29:49.486Z,26.13
2018-07-24T05:30:50.054Z,26.37
2018-07-24T05:31:50.621Z,26.62
2018-07-24T05:32:51.194Z,26.80
2018-07-24T05:33:51.755Z,26.85
2018-07-24T05:34:52.330Z,27.13
2018-07-24T05:35:52.899Z,27.03
2018-07-24T05:36:53.471Z,27.00
2018-07-24T05:37:54.039Z,27.02
2018-07-24T05:38:54.608Z,26.65
2018-07-24T05:39:55.179Z,26.50
2018-07-24T05:40:55.751Z,26.59
2018-07-24T05:41:56.314Z,26.85
2018-07-24T05:42:56.885Z,27.05
2018-07-24T05:43:57.458Z,27.28
2018-07-24T05:44:58.031Z,27.40
2018-07-24T05:45:58.603Z,27.35
2018-07-24T05:46:59.176Z,27.11
2018-07-24T05:47:59.747Z,26.99
2018-07-24T05:49:00.353Z,26.76
2018-07-24T05:50:00.888Z,26.62
2018-07-24T05:51:01.458Z,26.83
2018-07-24T05:52:02.023Z,27.13
2018-07-24T05:53:02.595Z,27.55
2018-07-24T05:54:03.168Z,27.73
2018-07-24T05:55:03.792Z,27.98
2018-07-24T05:56:04.307Z,28.23
2018-07-24T05:57:04.875Z,28.44
2018-07-24T05:58:05.450Z,28.73
2018-07-24T05:59:06.025Z,28.92
2018-07-24T06:00:06.593Z,29.17
2018-07-24T06:01:07.165Z,29.26
2018-07-24T06:02:07.733Z,29.35
2018-07-24T06:03:08.306Z,29.48
2018-07-24T06:04:08.879Z,29.62
2018-07-24T06:05:09.445Z,29.81
2018-07-24T06:06:10.023Z,29.64
2018-07-24T06:07:10.642Z,29.97
2018-07-24T06:08:11.170Z,30.16
2018-07-24T06:09:11.742Z,30.33
2018-07-24T06:10:12.313Z,30.56
2018-07-24T06:11:12.885Z,30.72
2018-07-24T06:12:13.453Z,30.88
2018-07-24T06:13:14.035Z,30.86
2018-07-24T06:14:14.594Z,30.59
2018-07-24T06:15:15.168Z,30.60
2018-07-24T06:16:15.743Z,30.43
2018-07-24T06:17:16.353Z,30.64
2018-07-24T06:18:16.878Z,30.90
2018-07-24T06:19:17.453Z,31.06
2018-07-24T06:20:18.026Z,31.20
2018-07-24T06:21:18.604Z,31.32
2018-07-24T06:22:19.175Z,31.74
2018-07-24T06:23:19.743Z,31.85
2018-07-24T06:24:20.319Z,31.95
2018-07-24T06:25:20.898Z,32.14
2018-07-24T06:26:21.470Z,32.47
2018-07-24T06:27:22.046Z,32.55
2018-07-24T06:28:22.624Z,32.77
2018-07-24T06:29:23.207Z,32.85
2018-07-24T06:30:23.774Z,33.30
2018-07-24T06:31:24.349Z,33.58
2018-07-24T06:32:24.930Z,33.72
2018-07-24T06:33:25.503Z,33.79
2018-07-24T06:34:26.085Z,33.87
2018-07-24T06:35:26.660Z,33.97
2018-07-24T06:36:27.235Z,33.89
2018-07-24T06:37:27.806Z,33.85
2018-07-24T06:38:28.381Z,33.89
2018-07-24T06:39:28.952Z,34.13
2018-07-24T06:40:29.522Z,34.17
2018-07-24T06:41:30.098Z,34.26
2018-07-24T06:42:30.676Z,34.32
2018-07-24T06:43:31.258Z,34.20
2018-07-24T06:44:31.884Z,34.38
2018-07-24T06:45:32.408Z,34.14
2018-07-24T06:46:32.984Z,34.27
2018-07-24T06:47:33.561Z,34.14
2018-07-24T06:48:34.137Z,33.99
2018-07-24T06:49:34.718Z,34.09
2018-07-24T06:50:35.292Z,34.34
2018-07-24T06:51:35.940Z,34.56
2018-07-24T06:52:36.440Z,34.53
2018-07-24T06:53:37.017Z,34.43
2018-07-24T06:54:37.593Z,34.20
2018-07-24T06:55:38.172Z,33.77
2018-07-24T06:56:38.785Z,33.86
2018-07-24T06:57:39.319Z,34.16
2018-07-24T06:58:39.887Z,34.32
2018-07-24T06:59:40.465Z,34.13
2018-07-24T07:00:41.042Z,34.35
2018-07-24T07:01:41.621Z,34.11
2018-07-24T07:02:42.197Z,34.21
2018-07-24T07:03:42.776Z,34.50
2018-07-24T07:04:43.350Z,35.01
2018-07-24T07:05:43.929Z,35.32
2018-07-24T07:06:44.510Z,35.32
2018-07-24T07:07:45.157Z,34.91
2018-07-24T07:08:45.659Z,34.91
2018-07-24T07:09:46.240Z,34.83
2018-07-24T07:10:46.819Z,35.05
2018-07-24T07:11:47.399Z,35.28
2018-07-24T07:12:47.976Z,35.37
2018-07-24T07:13:48.554Z,35.28
2018-07-24T07:14:49.130Z,35.20
2018-07-24T07:15:49.702Z,34.91
2018-07-24T07:16:50.282Z,34.88
2018-07-24T07:17:50.850Z,34.96
2018-07-24T07:18:51.426Z,35.30
2018-07-24T07:19:52.006Z,35.29
2018-07-24T07:20:52.583Z,35.30
2018-07-24T07:21:53.164Z,35.36
2018-07-24T07:22:53.736Z,35.44
2018-07-24T07:23:54.315Z,35.40
2018-07-24T07:24:54.896Z,35.21
2018-07-24T07:25:55.472Z,35.21
2018-07-24T07:26:56.049Z,35.11
2018-07-24T07:27:56.622Z,34.98
2018-07-24T07:28:57.209Z,34.81
2018-07-24T07:29:57.799Z,34.89
2018-07-24T07:30:58.377Z,34.83
2018-07-24T07:31:58.955Z,34.98
2018-07-24T07:32:59.535Z,35.18
2018-07-24T07:34:00.112Z,35.03
2018-07-24T07:35:00.688Z,35.18
2018-07-24T07:36:01.272Z,35.55
2018-07-24T07:37:01.848Z,35.67
2018-07-24T07:38:02.422Z,35.37
2018-07-24T07:39:03.002Z,35.36
2018-07-24T07:40:03.581Z,35.40
2018-07-24T07:41:04.161Z,35.29
2018-07-24T07:42:04.735Z,35.45
2018-07-24T07:43:05.309Z,35.66
2018-07-24T07:44:05.883Z,35.93
2018-07-24T07:45:06.459Z,35.98
2018-07-24T07:46:07.037Z,36.01
2018-07-24T07:47:07.619Z,36.00
2018-07-24T07:48:08.195Z,35.96
2018-07-24T07:49:08.776Z,35.84
2018-07-24T07:50:09.351Z,35.93
2018-07-24T07:51:09.927Z,36.04
2018-07-24T07:52:10.496Z,36.01
2018-07-24T07:53:11.069Z,36.06
2018-07-24T07:54:11.647Z,36.07
2018-07-24T07:55:12.226Z,36.27
2018-07-24T07:56:12.801Z,36.00
2018-07-24T07:57:13.382Z,35.81
2018-07-24T07:58:13.951Z,35.88
2018-07-24T07:59:14.529Z,35.89
2018-07-24T08:00:15.112Z,36.06
2018-07-24T08:01:15.701Z,36.20
2018-07-24T08:02:16.279Z,36.17
2018-07-24T08:03:16.858Z,35.95
2018-07-24T08:04:17.475Z,36.38
2018-07-24T08:05:18.016Z,36.36
2018-07-24T08:06:18.600Z,36.26
2018-07-24T08:07:19.175Z,36.29
2018-07-24T08:08:19.753Z,36.23
2018-07-24T08:09:20.330Z,36.43
2018-07-24T08:10:20.915Z,36.29
2018-07-24T08:11:21.479Z,36.14
2018-07-24T08:12:22.101Z,36.39
2018-07-24T08:13:22.628Z,36.48
2018-07-24T08:14:23.197Z,36.20
2018-07-24T08:15:23.776Z,35.85
2018-07-24T08:16:24.360Z,36.00
2018-07-24T08:17:24.938Z,36.07
2018-07-24T08:18:25.515Z,36.01
2018-07-24T08:19:26.095Z,36.00
2018-07-24T08:20:26.671Z,36.07
2018-07-24T08:21:27.249Z,36.12
2018-07-24T08:22:27.829Z,36.34
2018-07-24T08:23:28.405Z,36.54
2018-07-24T08:24:28.984Z,37.01
2018-07-24T08:25:29.572Z,37.20
2018-07-24T08:26:30.152Z,37.48
2018-07-24T08:27:30.728Z,37.47
2018-07-24T08:28:31.307Z,37.73
2018-07-24T08:29:31.886Z,37.74
2018-07-24T08:30:32.467Z,37.93
2018-07-24T08:31:33.048Z,38.00
2018-07-24T08:32:33.623Z,38.12
2018-07-24T08:33:34.234Z,38.14
2018-07-24T08:34:34.773Z,37.95
2018-07-24T08:35:35.346Z,37.89
2018-07-24T08:36:35.919Z,38.11
2018-07-24T08:37:36.498Z,38.08
2018-07-24T08:38:37.067Z,38.10
2018-07-24T08:39:37.647Z,38.29
2018-07-24T08:40:38.223Z,38.34
2018-07-24T08:41:38.800Z,38.41
2018-07-24T08:42:39.379Z,38.51
2018-07-24T08:43:39.961Z,38.39
2018-07-24T08:44:40.588Z,38.57
2018-07-24T08:45:41.120Z,38.59
2018-07-24T08:46:41.696Z,38.66
2018-07-24T08:47:42.275Z,38.49
2018-07-24T08:48:42.856Z,38.92
2018-07-24T08:49:43.433Z,39.30
2018-07-24T08:50:44.015Z,39.20
2018-07-24T08:51:44.592Z,39.32
2018-07-24T08:52:45.302Z,39.55
2018-07-24T08:53:46.272Z,39.73
2018-07-24T08:54:46.511Z,39.44
2018-07-24T08:55:47.299Z,39.17
2018-07-24T08:56:47.468Z,39.09
2018-07-24T08:57:48.111Z,38.82
2018-07-24T08:58:48.627Z,38.73
2018-07-24T08:59:49.205Z,38.54
2018-07-24T09:00:49.779Z,38.48
2018-07-24T09:01:50.349Z,38.76
2018-07-24T09:02:50.921Z,38.39
2018-07-24T09:03:51.540Z,38.57
2018-07-24T09:04:52.073Z,38.52
2018-07-24T09:05:52.651Z,38.46
2018-07-24T09:06:53.232Z,38.71
2018-07-24T09:07:53.809Z,38.80
2018-07-24T09:08:54.388Z,38.79
2018-07-24T09:09:54.972Z,39.08
2018-07-24T09:10:55.543Z,39.08
2018-07-24T09:11:56.115Z,38.92
2018-07-24T09:12:56.687Z,39.05
2018-07-24T09:13:57.266Z,38.95
2018-07-24T09:14:57.849Z,38.59
2018-07-24T09:15:58.417Z,38.48
2018-07-24T09:16:58.990Z,38.37
2018-07-24T09:17:59.571Z,38.68
2018-07-24T09:19:00.150Z,38.59
2018-07-24T09:20:00.730Z,38.51
2018-07-24T09:21:01.415Z,38.52
2018-07-24T09:22:01.881Z,38.74
2018-07-24T09:23:02.459Z,38.64
2018-07-24T09:24:03.037Z,38.78
2018-07-24T09:25:03.615Z,38.57
2018-07-24T09:26:04.194Z,38.59
2018-07-24T09:27:04.860Z,38.78
2018-07-24T09:28:05.345Z,38.96
2018-07-24T09:29:05.920Z,38.95
2018-07-24T09:30:06.496Z,38.92
2018-07-24T09:31:07.069Z,38.54
2018-07-24T09:32:07.692Z,38.22
2018-07-24T09:33:08.220Z,38.17
2018-07-24T09:34:08.798Z,38.37
2018-07-24T09:35:09.376Z,38.29
2018-07-24T09:36:09.955Z,38.03
2018-07-24T09:37:10.533Z,37.69
2018-07-24T09:38:11.113Z,37.69
2018-07-24T09:39:11.690Z,37.59
2018-07-24T09:40:12.273Z,37.50
2018-07-24T09:41:12.852Z,37.50
2018-07-24T09:42:13.425Z,37.56
2018-07-24T09:43:13.998Z,37.55
2018-07-24T09:44:14.580Z,37.56
2018-07-24T09:45:15.157Z,37.46
2018-07-24T09:46:15.735Z,37.50
2018-07-24T09:47:16.317Z,37.76
2018-07-24T09:48:16.891Z,37.76
2018-07-24T09:49:17.470Z,37.55
2018-07-24T09:50:18.039Z,37.61
2018-07-24T09:51:18.618Z,37.55
2018-07-24T09:52:19.197Z,37.39
2018-07-24T09:53:19.774Z,36.95
2018-07-24T09:54:20.353Z,36.97
2018-07-24T09:55:20.930Z,36.41
2018-07-24T09:56:21.532Z,36.41
2018-07-24T09:57:22.087Z,36.86
2018-07-24T09:58:22.657Z,37.16
2018-07-24T09:59:23.236Z,37.07
2018-07-24T10:00:23.805Z,36.64
2018-07-24T10:01:24.384Z,36.91
2018-07-24T10:02:24.962Z,37.23
2018-07-24T10:03:25.528Z,37.48
2018-07-24T10:04:26.103Z,37.71
2018-07-24T10:05:26.728Z,37.92
2018-07-24T10:06:27.253Z,37.62
2018-07-24T10:07:27.830Z,37.50
2018-07-24T10:08:28.410Z,37.70
2018-07-24T10:09:28.986Z,37.76
2018-07-24T10:10:29.564Z,37.54
2018-07-24T10:11:30.150Z,37.28
2018-07-24T10:12:30.724Z,37.16
2018-07-24T10:13:31.308Z,37.19
2018-07-24T10:14:31.885Z,37.14
2018-07-24T10:15:32.459Z,37.02
2018-07-24T10:16:33.117Z,37.19
2018-07-24T10:17:33.605Z,37.43
2018-07-24T10:18:34.182Z,37.41
2018-07-24T10:19:34.764Z,37.29
2018-07-24T10:20:35.338Z,37.26
2018-07-24T10:21:35.919Z,37.41
2018-07-24T10:22:36.497Z,37.61
2018-07-24T10:23:37.079Z,37.70
2018-07-24T10:24:37.657Z,37.85
2018-07-24T10:25:38.234Z,37.98
2018-07-24T10:26:38.812Z,38.20
2018-07-24T10:27:39.392Z,38.22
2018-07-24T10:28:39.967Z,38.30
2018-07-24T10:29:40.544Z,38.39
2018-07-24T10:30:41.122Z,38.44
2018-07-24T10:31:41.708Z,38.68
2018-07-24T10:32:42.290Z,38.52
2018-07-24T10:33:42.866Z,38.32
2018-07-24T10:34:43.437Z,38.30
2018-07-24T10:35:44.014Z,37.90
2018-07-24T10:36:44.588Z,37.89
2018-07-24T10:37:45.165Z,37.62
2018-07-24T10:38:45.751Z,37.51
2018-07-24T10:39:46.318Z,37.92
2018-07-24T10:40:46.897Z,38.20
2018-07-24T10:41:47.466Z,38.29
2018-07-24T10:42:48.043Z,38.39
2018-07-24T10:43:48.615Z,38.51
2018-07-24T10:44:49.192Z,38.63
2018-07-24T10:45:49.768Z,38.74
2018-07-24T10:46:50.344Z,38.78
2018-07-24T10:47:50.919Z,38.96
2018-07-24T10:48:51.498Z,39.14
2018-07-24T10:49:52.068Z,39.24
2018-07-24T10:50:52.660Z,39.12
2018-07-24T10:51:53.273Z,39.09
2018-07-24T10:52:53.844Z,38.86
2018-07-24T10:53:54.420Z,38.48
2018-07-24T10:54:55.020Z,38.49
2018-07-24T10:55:55.574Z,38.52
2018-07-24T10:56:56.153Z,38.61
2018-07-24T10:57:56.732Z,38.88
2018-07-24T10:58:57.307Z,38.85
2018-07-24T10:59:57.886Z,39.14
2018-07-24T11:00:58.468Z,39.21
2018-07-24T11:01:59.039Z,39.44
2018-07-24T11:02:59.616Z,39.36
2018-07-24T11:04:00.192Z,39.14
2018-07-24T11:05:00.772Z,39.14
2018-07-24T11:06:01.354Z,39.15
2018-07-24T11:07:01.929Z,39.09
2018-07-24T11:08:02.516Z,39.23
2018-07-24T11:09:03.085Z,39.44
2018-07-24T11:10:03.663Z,39.58
2018-07-24T11:11:04.254Z,39.77
2018-07-24T11:12:04.813Z,39.52
2018-07-24T11:13:05.396Z,39.39
2018-07-24T11:14:05.963Z,39.39
2018-07-24T11:15:06.544Z,39.55
2018-07-24T11:16:07.124Z,39.89
2018-07-24T11:17:07.695Z,40.15
2018-07-24T11:18:08.277Z,40.17
2018-07-24T11:19:08.857Z,40.21
2018-07-24T11:20:09.427Z,39.81
2018-07-24T11:21:10.007Z,39.57
2018-07-24T11:22:10.666Z,39.55
2018-07-24T11:23:11.292Z,39.66
2018-07-24T11:24:11.766Z,39.27
2018-07-24T11:25:12.375Z,39.20
2018-07-24T11:26:12.953Z,38.99
2018-07-24T11:27:13.533Z,38.80
2018-07-24T11:28:14.119Z,38.54
2018-07-24T11:29:14.684Z,37.90
2018-07-24T11:30:15.264Z,37.67
2018-07-24T11:31:15.843Z,37.33
2018-07-24T11:32:16.445Z,37.32
2018-07-24T11:33:17.012Z,37.54
2018-07-24T11:34:17.571Z,37.62
2018-07-24T11:35:18.152Z,37.90
2018-07-24T11:36:18.797Z,38.26
2018-07-24T11:37:19.304Z,38.54
2018-07-24T11:38:19.890Z,38.68
2018-07-24T11:39:20.463Z,39.09
2018-07-24T11:40:21.037Z,39.44
2018-07-24T11:41:21.607Z,39.61
2018-07-24T11:42:22.191Z,39.78
2018-07-24T11:43:22.766Z,39.98
2018-07-24T11:44:23.343Z,39.58
2018-07-24T11:45:23.914Z,39.66
2018-07-24T11:46:24.512Z,39.91
2018-07-24T11:47:25.069Z,39.84
2018-07-24T11:48:25.645Z,39.47
2018-07-24T11:49:26.223Z,39.66
2018-07-24T11:50:26.801Z,39.95
2018-07-24T11:51:27.439Z,39.99
2018-07-24T11:52:27.954Z,40.03
2018-07-24T11:53:28.528Z,40.36
2018-07-24T11:54:29.097Z,40.62
2018-07-24T11:55:29.678Z,40.68
2018-07-24T11:56:30.253Z,40.62
2018-07-24T11:57:30.830Z,40.62
2018-07-24T11:58:31.412Z,40.75
2018-07-24T11:59:31.992Z,40.75
2018-07-24T12:00:32.565Z,40.93
2018-07-24T12:01:33.143Z,41.05
2018-07-24T12:02:33.720Z,41.25
2018-07-24T12:03:34.324Z,41.36
2018-07-24T12:04:34.868Z,41.20
2018-07-24T12:05:35.448Z,40.94
2018-07-24T12:06:36.030Z,40.52
2018-07-24T12:07:36.610Z,40.72
2018-07-24T12:08:37.197Z,40.84
2018-07-24T12:09:37.774Z,40.75
2018-07-24T12:10:38.401Z,40.84
2018-07-24T12:11:38.982Z,40.76
2018-07-24T12:12:39.509Z,40.64
2018-07-24T12:13:40.086Z,40.02
2018-07-24T12:14:40.666Z,39.39
2018-07-24T12:15:41.230Z,38.90
2018-07-24T12:16:41.807Z,39.17
2018-07-24T12:17:42.384Z,39.36
2018-07-24T12:18:42.960Z,39.43
2018-07-24T12:19:43.615Z,39.64
2018-07-24T12:20:44.111Z,39.55
2018-07-24T12:21:44.695Z,39.83
2018-07-24T12:22:45.273Z,40.11
2018-07-24T12:23:45.852Z,40.34
2018-07-24T12:24:46.433Z,40.57
2018-07-24T12:25:47.007Z,40.99
2018-07-24T12:26:47.588Z,41.18
2018-07-24T12:27:48.164Z,41.52
2018-07-24T12:28:48.739Z,41.49
2018-07-24T12:29:49.308Z,41.22
2018-07-24T12:30:49.879Z,41.43
2018-07-24T12:31:50.450Z,41.64
2018-07-24T12:32:51.051Z,41.05
2018-07-24T12:33:51.611Z,40.99
2018-07-24T12:34:52.191Z,41.06
2018-07-24T12:35:52.818Z,40.91
2018-07-24T12:36:53.339Z,40.55
2018-07-24T12:37:53.919Z,40.14
2018-07-24T12:38:54.502Z,40.64
2018-07-24T12:39:55.079Z,41.22
2018-07-24T12:40:55.661Z,41.58
2018-07-24T12:41:56.239Z,41.64
2018-07-24T12:42:56.817Z,41.82
2018-07-24T12:43:57.396Z,42.12
2018-07-24T12:44:57.973Z,42.27
2018-07-24T12:45:58.552Z,42.42
2018-07-24T12:46:59.124Z,42.59
2018-07-24T12:47:59.702Z,42.61
2018-07-24T12:49:00.284Z,42.75
2018-07-24T12:50:00.865Z,42.75
2018-07-24T12:51:01.441Z,42.90
2018-07-24T12:52:02.021Z,43.00
2018-07-24T12:53:02.593Z,42.98
2018-07-24T12:54:03.164Z,42.85
2018-07-24T12:55:03.752Z,42.87
2018-07-24T12:56:04.339Z,42.95
2018-07-24T12:57:04.923Z,42.88
2018-07-24T12:58:05.577Z,42.49
2018-07-24T12:59:06.085Z,42.13
2018-07-24T13:00:06.656Z,41.84